メインページ
METAR-TAF:

METAR-TAF

空港 :

ロンドン, オンタリオ州, カナダ

緯度: 43-02N, 経度: 081-09W, 海抜: 278m

現時点の気象観測

当レポートは19分前の11:22(UTC)に作成
西の風 8kt、最大16ktの突風を伴う
気温 -8°C
湿度 79%
気圧 1022 hPa
視程: 24.1km
高度2500ftの千切れ雲あり
高度5300ftの曇り
弱いにわか雪

METAR: CYXU 231122Z 27008G16KT 15SM -SHSN BKN025 OVC053 M08/M11 A3018 RMK SC5SC3 CU ASOCTD SLP239

時間: 06:41 (11:41 UTC)

予報

当レポートは3分前の11:38(UTC)に作成
予報は23日の 12時(UTC)から 24日の 12時(UTC)まで有効
西の風 10kt、最大20ktの突風を伴う
視程: 10km
高度2500ftの千切れ雲あり
高度5000ftの曇り
弱いにわか雪
23日の 12時(UTC)から 23日の 21時(UTC)まで一時的に
高度2000ftの曇り
弱いにわか雪
23日の 2100時(UTC)から
西/北西の風 12kt
視程: 10km
高度2000ftの千切れ雲あり
高度4000ftの千切れ雲あり
弱いにわか雪
23日の 2300時(UTC)から
西/北西の風 8kt
視程: 10km
高度2000ftの雲は散在している
24日の 01時(UTC)から 24日の 03時(UTC)まで徐々に
変向風 3kt
24日の 1100時(UTC)から
東/南東の風 5kt
視程: 10km
高度2000ftの雲はほとんどない
高度10000ftの千切れ雲あり

TAF: CYXU 231138Z 2312/2412 28010G20KT P6SM -SHSN BKN025 OVC050 TEMPO 2312/2321 11/2SM -SHSN OVC020 FM232100 29012KT P6SM -SHSN BKN020 BKN040 FM232300 30008KT P6SM SCT020 BECMG 2401/2403 VRB03KT FM241100 11005KT P6SM FEW020 BKN100 RMK NXT FCST BY 231800Z

4,000以上の空港の気象観測と天気予報(METAR報とTAF報)

利用可能な観測所は地図上に黄色い丸と赤い丸で示す。

丸の上にカーソルを重ねると観測所名を参照できる。

次にクリックすると気象観測と天気予報を参照できる。

マップの切り替え:黒色「×」印の緑ボタンをクリックして拡大、「-」印の緑ボタンをクリックして縮小、緑色の三角印をクリックして隣りの地図に切り替え


METAR-TAF: